Autaugaville, Alabama
Current Conditions -  °F | °C
As of 8:55 PM on Sunday 21 Dec 2014 (Local Time) from K1A9 Reporting Station
Overcast Overcast  
Wind Chill: 11°   Ceiling: 1000
Heat Index: 11°   Visibility: 10mi
Dew Point: 10°   Wind: 3mph
Humidity: 90%   Direction: 100°E
Pressure: 30.05"   Gusts: NA
Location:  32.43°N, 86.65°W
Report Text: K1A9 220255Z AUTO 10003KT 10SM OVC010 11/10 A3005 RMK AO2 T01110095
Loading
Personal Weather Stations






























Interactive Weather Map New forecast layout! Learn more

10-Day Weather Forecast

Advertisements
Track Severe Weather on mobile